TDCF/DCF METAR and TAF weather

Enter ICAO airport designator
Station Type Date Time Source
TDCF METAR 2022/07/03 15:00 UTC NOAA

TDCF 031500Z 05004KT 9999 BKN019 31/21 Q1017


Station Type Date Time Source
TDCF Decoded METAR 2022/07/03 15:00 UTC NOAA

Canefield Airport, Dominica (TDCF) 15-32N 061-24W 5M
Jul 03, 2022 - 11:00 AM EDT / 2022.07.03 1500 UTC
Wind: from the NE (050 degrees) at 5 MPH (4 KT):0
Visibility: greater than 7 mile(s):0
Sky conditions: mostly cloudy
Temperature: 87 F (31 C)
Dew Point: 69 F (21 C)
Relative Humidity: 55%
Pressure (altimeter): 30.03 in. Hg (1017 hPa)
ob: TDCF 031500Z 05004KT 9999 BKN019 31/21 Q1017
cycle: 15

Station Type Date Time Source
TDCF TAF 2012/05/01 18:15 UTC NOAA

TAF TDCF 011600Z 0118/0218 110010KT 9999 SCT018 BKN030
TEMPO 0118/0206 6000 SHRA BKN014 BKN070

Example: see airport list